Time;durP1;ratioP1;P1;durP2;ratioP2;P2;SDS_P1;SDS_P2;PMS_P1;PMS_P2;Temp;Humidity;BMP_temperature;BMP_pressure;BME280_temperature;BME280_humidity;BME280_pressure;Samples;Min_cycle;Max_cycle;Signal;HPM_P1;HPM_P2
2023/07/03 00:00:12;;;;;;;15.48;4.25;;;;;;;13.77;100.00;99343.38;4972348;28;20154;-74
2023/07/03 00:02:42;;;;;;;15.35;4.55;;;;;;;13.83;100.00;99352.41;4966711;28;20128;-74
2023/07/03 00:05:09;;;;;;;12.25;4.65;;;;;;;13.72;100.00;99316.41;4971523;28;20041;-73
2023/07/03 00:07:35;;;;;;;12.65;4.15;;;;;;;13.73;100.00;99371.66;4973043;28;20609;-73
2023/07/03 00:10:01;;;;;;;10.75;4.18;;;;;;;13.74;100.00;99357.22;4961495;28;20031;-73
2023/07/03 00:12:26;;;;;;;10.60;4.53;;;;;;;13.71;100.00;99384.47;4978757;28;20470;-74
2023/07/03 00:14:52;;;;;;;20.13;4.85;;;;;;;13.71;100.00;99326.28;4976540;28;20035;-73
2023/07/03 00:17:17;;;;;;;13.32;4.38;;;;;;;13.73;100.00;99328.75;4977196;28;20038;-73
2023/07/03 00:19:43;;;;;;;15.00;4.27;;;;;;;13.69;100.00;99365.91;4974650;28;20038;-73
2023/07/03 00:22:08;;;;;;;10.30;3.93;;;;;;;13.58;100.00;99390.75;4976777;28;20038;-73
2023/07/03 00:24:34;;;;;;;11.90;3.90;;;;;;;13.59;100.00;99375.47;4975368;28;20395;-74
2023/07/03 00:27:00;;;;;;;11.80;3.83;;;;;;;13.54;100.00;99402.13;4960298;28;20051;-73
2023/07/03 00:29:29;;;;;;;10.73;3.92;;;;;;;13.44;100.00;99422.16;4967991;28;20914;-73
2023/07/03 00:31:55;;;;;;;11.63;4.00;;;;;;;13.39;100.00;99454.16;4951896;28;20043;-73
2023/07/03 00:34:20;;;;;;;12.90;4.17;;;;;;;13.49;100.00;99454.53;4964795;28;20015;-73
2023/07/03 00:36:46;;;;;;;14.40;5.17;;;;;;;13.50;100.00;99466.06;4971279;28;20065;-73
2023/07/03 00:39:11;;;;;;;15.45;4.35;;;;;;;13.58;100.00;99481.06;4951755;28;20495;-73
2023/07/03 00:41:37;;;;;;;15.63;3.90;;;;;;;13.56;100.00;99485.84;4964729;28;20054;-74
2023/07/03 00:44:02;;;;;;;17.63;4.83;;;;;;;13.63;100.00;99487.47;4966786;28;20054;-73
2023/07/03 00:46:28;;;;;;;12.60;5.15;;;;;;;13.65;100.00;99530.16;4967524;28;20050;-73
2023/07/03 00:48:53;;;;;;;11.00;4.17;;;;;;;13.70;100.00;99511.56;4967511;28;20039;-73
2023/07/03 00:51:19;;;;;;;11.07;3.90;;;;;;;13.71;100.00;99572.22;4967807;28;20121;-73
2023/07/03 00:53:44;;;;;;;11.93;5.33;;;;;;;13.74;100.00;99603.97;4951393;28;20023;-73
2023/07/03 00:56:11;;;;;;;14.90;5.25;;;;;;;13.72;100.00;99606.06;4975233;28;20081;-73
2023/07/03 00:58:37;;;;;;;10.25;4.68;;;;;;;13.77;100.00;99571.38;4967426;28;20027;-73
2023/07/03 01:01:19;;;;;;;9.85;3.90;;;;;;;13.82;100.00;99597.56;4966527;28;20042;-73
2023/07/03 01:03:57;;;;;;;17.73;4.80;;;;;;;13.70;100.00;99610.81;4970938;28;20125;-74
2023/07/03 01:06:28;;;;;;;13.93;4.78;;;;;;;13.77;100.00;99694.78;4967243;28;20045;-73
2023/07/03 01:09:00;;;;;;;12.10;5.50;;;;;;;13.74;100.00;99797.09;4966975;28;20125;-73
2023/07/03 01:11:26;;;;;;;16.45;5.82;;;;;;;13.44;100.00;99780.63;4974080;28;20038;-73
2023/07/03 01:13:55;;;;;;;16.85;5.63;;;;;;;13.13;100.00;99840.09;4959329;28;20019;-73
2023/07/03 01:16:21;;;;;;;13.35;4.93;;;;;;;13.12;100.00;99852.66;4960717;28;20115;-73
2023/07/03 01:18:49;;;;;;;13.40;4.72;;;;;;;13.06;100.00;99854.31;4975838;28;20034;-73
2023/07/03 01:21:19;;;;;;;14.30;4.65;;;;;;;12.93;100.00;99896.28;4962250;28;20049;-73
2023/07/03 01:23:51;;;;;;;17.33;5.32;;;;;;;12.93;100.00;99945.31;4954656;28;20035;-73
2023/07/03 01:26:19;;;;;;;17.65;5.30;;;;;;;12.71;100.00;99925.00;4975240;28;20038;-73
2023/07/03 01:28:48;;;;;;;17.67;5.93;;;;;;;12.63;100.00;99950.06;4972367;28;20026;-73
2023/07/03 01:31:14;;;;;;;18.85;5.50;;;;;;;12.59;100.00;99944.28;4953023;28;20403;-73
2023/07/03 01:33:44;;;;;;;11.80;5.15;;;;;;;12.57;100.00;99973.13;4973793;28;20030;-73
2023/07/03 01:36:12;;;;;;;15.77;6.35;;;;;;;12.55;100.00;99952.88;4973351;28;20117;-73
2023/07/03 01:38:41;;;;;;;13.95;5.50;;;;;;;12.50;100.00;99939.25;4972427;28;20081;-73
2023/07/03 01:41:08;;;;;;;22.20;7.03;;;;;;;12.50;100.00;99926.69;4942827;28;20027;-73
2023/07/03 01:43:35;;;;;;;12.05;4.65;;;;;;;12.57;100.00;99914.22;4976765;28;20015;-73
2023/07/03 01:46:02;;;;;;;9.93;4.60;;;;;;;12.66;100.00;99838.03;4963161;28;20134;-73
2023/07/03 01:48:30;;;;;;;;;;;;;;;12.79;100.00;99793.59;4975257;28;20030;-73
2023/07/03 01:50:55;;;;;;;10.80;4.00;;;;;;;12.85;100.00;99744.56;4960237;28;19918;-73
2023/07/03 01:53:27;;;;;;;13.47;4.53;;;;;;;12.88;100.00;99712.03;4974415;28;20380;-73
2023/07/03 01:56:04;;;;;;;25.00;4.50;;;;;;;12.93;100.00;99741.72;4942579;28;20042;-73
2023/07/03 01:58:49;;;;;;;11.55;4.35;;;;;;;13.00;100.00;99729.16;4962739;28;20480;-73
2023/07/03 02:01:20;;;;;;;9.73;3.90;;;;;;;13.01;100.00;99684.44;4958016;28;20112;-73
2023/07/03 02:03:52;;;;;;;13.32;4.15;;;;;;;13.04;100.00;99649.19;4959029;28;20057;-73
2023/07/03 02:06:21;;;;;;;13.77;3.55;;;;;;;13.05;100.00;99646.31;4959992;28;20042;-73
2023/07/03 02:08:50;;;;;;;16.77;3.65;;;;;;;13.02;100.00;99670.03;4974039;28;20045;-73
2023/07/03 02:11:17;;;;;;;7.70;3.03;;;;;;;13.05;100.00;99632.09;4961378;28;20081;-73
2023/07/03 02:13:45;;;;;;;12.80;3.88;;;;;;;12.98;100.00;99618.69;4942537;28;20430;-73
2023/07/03 02:16:12;;;;;;;10.38;3.40;;;;;;;12.96;100.00;99607.34;4965564;28;20043;-73
2023/07/03 02:18:37;;;;;;;19.95;3.45;;;;;;;12.95;100.00;99604.91;4955287;28;20031;-73
2023/07/03 02:21:05;;;;;;;8.27;3.47;;;;;;;13.00;100.00;99616.63;4973861;28;20062;-73
2023/07/03 02:23:33;;;;;;;10.73;3.10;;;;;;;12.95;100.00;99632.50;4951775;28;20023;-73
2023/07/03 02:25:59;;;;;;;11.57;3.67;;;;;;;12.92;100.00;99643.63;4980508;28;20030;-73
2023/07/03 02:28:25;;;;;;;8.20;3.28;;;;;;;12.94;100.00;99735.31;4963220;28;20914;-73
2023/07/03 02:30:50;;;;;;;13.67;4.23;;;;;;;12.88;100.00;99795.09;4973833;28;20043;-73
2023/07/03 02:33:16;;;;;;;13.23;3.70;;;;;;;12.70;100.00;99893.88;4975160;28;20026;-74
2023/07/03 02:35:41;;;;;;;18.23;4.27;;;;;;;12.63;100.00;99960.78;4980205;28;20149;-72
2023/07/03 02:38:08;;;;;;;15.47;4.53;;;;;;;12.40;100.00;99979.75;4949929;28;20023;-73
2023/07/03 02:40:36;;;;;;;12.02;3.95;;;;;;;12.37;100.00;99988.19;4969731;28;20038;-73
2023/07/03 02:43:03;;;;;;;9.02;3.28;;;;;;;12.19;100.00;99997.47;4981380;28;20030;-72
2023/07/03 02:45:33;;;;;;;10.15;4.28;;;;;;;12.13;100.00;99986.72;4971945;28;20081;-73
2023/07/03 02:47:59;;;;;;;13.10;3.78;;;;;;;12.07;100.00;99992.84;4966217;28;20122;-72
2023/07/03 02:50:25;;;;;;;10.52;2.70;;;;;;;12.00;100.00;99976.72;4971007;28;20428;-72
2023/07/03 02:52:51;;;;;;;10.80;3.83;;;;;;;11.95;100.00;99955.88;4968884;28;20560;-72
2023/07/03 02:55:16;;;;;;;7.93;2.90;;;;;;;11.96;100.00;99956.69;4965302;28;20550;-73
2023/07/03 02:57:41;;;;;;;6.93;3.47;;;;;;;11.97;100.00;99945.00;4965472;28;20027;-73
2023/07/03 03:00:08;;;;;;;11.45;3.40;;;;;;;12.10;100.00;99958.50;4965331;28;20076;-72
2023/07/03 03:02:34;;;;;;;;;;;;;;;12.15;100.00;99963.25;4962155;28;20026;-72
2023/07/03 03:04:59;;;;;;;;;;;;;;;12.25;100.00;99953.91;4967042;28;19925;-73
2023/07/03 03:07:24;;;;;;;8.37;4.67;;;;;;;12.27;100.00;99926.09;4965474;28;19928;-73
2023/07/03 03:09:50;;;;;;;10.80;4.23;;;;;;;12.31;100.00;99898.75;4965121;28;20045;-73
2023/07/03 03:12:16;;;;;;;15.45;3.90;;;;;;;12.36;100.00;99879.44;4949325;28;20523;-73
2023/07/03 03:14:42;;;;;;;18.23;5.30;;;;;;;12.36;100.00;99858.88;4965285;28;20027;-73
2023/07/03 03:17:07;;;;;;;7.72;4.13;;;;;;;12.38;100.00;99846.09;4958703;28;20118;-74
2023/07/03 03:19:33;;;;;;;14.57;4.63;;;;;;;12.41;100.00;99834.19;4967307;28;20074;-74
2023/07/03 03:21:58;;;;;;;13.67;4.80;;;;;;;12.42;100.00;99825.13;4972270;28;20468;-74
2023/07/03 03:24:25;;;;;;;11.37;3.93;;;;;;;12.46;100.00;99827.22;4956272;28;20317;-74
2023/07/03 03:26:50;;;;;;;;;;;;;;;12.49;100.00;99826.00;4973534;28;20043;-73
2023/07/03 03:29:15;;;;;;;;;;;;;;;12.53;100.00;99813.06;4962106;28;19917;-73
2023/07/03 03:31:41;;;;;;;10.30;4.20;;;;;;;12.50;100.00;99826.81;4968884;28;19910;-74
2023/07/03 03:34:07;;;;;;;11.40;3.60;;;;;;;12.51;100.00;99810.56;4964757;28;20546;-73
2023/07/03 03:36:38;;;;;;;12.97;4.07;;;;;;;12.52;100.00;99814.06;4964976;28;20542;-74
2023/07/03 03:39:05;;;;;;;15.90;3.33;;;;;;;12.53;100.00;99805.84;4971397;28;20038;-73
2023/07/03 03:41:31;;;;;;;12.55;4.45;;;;;;;12.48;100.00;99800.25;4965728;28;20526;-73
2023/07/03 03:43:57;;;;;;;15.68;4.13;;;;;;;12.54;100.00;99793.28;4968124;28;20054;-74
2023/07/03 03:46:23;;;;;;;9.40;3.88;;;;;;;12.57;100.00;99777.66;4968743;28;20126;-74
2023/07/03 03:48:48;;;;;;;8.50;3.67;;;;;;;12.64;100.00;99757.09;4975158;28;20173;-73
2023/07/03 03:51:14;;;;;;;11.35;3.38;;;;;;;12.72;100.00;99741.88;4960854;28;20038;-74
2023/07/03 03:53:40;;;;;;;9.93;4.65;;;;;;;12.81;100.00;99716.56;4957499;28;20202;-74
2023/07/03 03:56:06;;;;;;;11.02;3.65;;;;;;;12.83;100.00;99709.13;4979351;28;20499;-73
2023/07/03 03:58:33;;;;;;;11.90;2.80;;;;;;;12.93;100.00;99706.91;4974806;28;20120;-73
2023/07/03 04:00:58;;;;;;;16.83;3.53;;;;;;;12.83;100.00;99698.41;4964848;28;20079;-72
2023/07/03 04:03:24;;;;;;;11.33;3.37;;;;;;;12.67;100.00;99754.00;4975683;28;20026;-72
2023/07/03 04:05:49;;;;;;;9.07;3.80;;;;;;;12.47;100.00;99811.97;4976905;28;20568;-72
2023/07/03 04:08:14;;;;;;;10.23;3.57;;;;;;;12.35;100.00;99797.50;4977925;28;20034;-72
2023/07/03 04:10:42;;;;;;;13.33;3.10;;;;;;;12.45;100.00;99825.59;4977508;28;20069;-72
2023/07/03 04:13:09;;;;;;;12.38;4.15;;;;;;;12.51;100.00;99829.31;4990433;28;20035;-72
2023/07/03 04:15:51;;;;;;;8.38;3.63;;;;;;;12.65;100.00;99851.63;4974275;28;20022;-72
2023/07/03 04:18:16;;;;;;;15.65;4.68;;;;;;;12.71;100.00;99872.25;4978357;28;20044;-71
2023/07/03 04:20:42;;;;;;;10.93;3.22;;;;;;;12.74;100.00;99857.66;4974838;28;20027;-72
2023/07/03 04:23:07;;;;;;;14.23;4.83;;;;;;;12.77;100.00;99851.91;4974726;28;20050;-72
2023/07/03 04:25:32;;;;;;;15.27;3.20;;;;;;;12.78;100.00;99848.19;4975669;28;20426;-73
2023/07/03 04:27:58;;;;;;;9.60;3.43;;;;;;;12.81;100.00;99845.13;4948260;28;20412;-73
2023/07/03 04:30:23;;;;;;;8.77;3.87;;;;;;;12.82;100.00;99830.69;4975493;28;20399;-72
2023/07/03 04:32:54;;;;;;;6.82;2.90;;;;;;;12.81;100.00;99799.59;4972980;28;20105;-73
2023/07/03 04:35:21;;;;;;;12.35;3.78;;;;;;;12.85;100.00;99782.06;4975078;28;20095;-73
2023/07/03 04:37:46;;;;;;;;;;;;;;;12.86;100.00;99751.59;4976586;28;20034;-72
2023/07/03 04:40:12;;;;;;;10.02;3.15;;;;;;;12.91;100.00;99738.41;4964412;28;19914;-73
2023/07/03 04:42:38;;;;;;;19.15;6.32;;;;;;;12.83;100.00;99722.50;4976140;28;20022;-73
2023/07/03 04:45:06;;;;;;;10.10;2.88;;;;;;;12.95;100.00;99720.91;4976011;28;20049;-73
2023/07/03 04:47:31;;;;;;;7.32;3.78;;;;;;;12.93;100.00;99693.50;4975411;28;20088;-73
2023/07/03 04:49:58;;;;;;;7.63;3.22;;;;;;;13.04;100.00;99670.63;4974316;28;20035;-73
2023/07/03 04:52:27;;;;;;;8.73;3.50;;;;;;;13.27;100.00;99678.25;4975949;28;20396;-73
2023/07/03 04:54:56;;;;;;;8.55;2.78;;;;;;;13.38;100.00;99642.84;4942803;28;20054;-73
2023/07/03 04:57:21;;;;;;;14.25;3.25;;;;;;;13.59;100.00;99628.38;4973460;28;20014;-73
2023/07/03 04:59:48;;;;;;;13.87;3.97;;;;;;;13.57;100.00;99618.88;4973792;28;20039;-74
2023/07/03 05:02:17;;;;;;;11.70;3.38;;;;;;;13.68;100.00;99631.66;4976282;28;20074;-73
2023/07/03 05:04:43;;;;;;;11.77;4.32;;;;;;;13.81;100.00;99610.16;4973951;28;20103;-74
2023/07/03 05:07:08;;;;;;;10.07;3.67;;;;;;;13.96;100.00;99619.81;4961315;28;20022;-73
2023/07/03 05:09:34;;;;;;;17.17;4.57;;;;;;;13.96;100.00;99584.94;4974635;28;20030;-73
2023/07/03 05:11:59;;;;;;;12.90;4.43;;;;;;;14.03;100.00;99613.38;4960058;28;20422;-73
2023/07/03 05:14:24;;;;;;;11.48;4.82;;;;;;;13.98;100.00;99597.09;4974461;28;20109;-74
2023/07/03 05:16:50;;;;;;;10.00;3.77;;;;;;;14.04;100.00;99572.09;4973737;28;20062;-74
2023/07/03 05:19:15;;;;;;;8.47;4.20;;;;;;;14.41;100.00;99626.00;4977674;28;20026;-74
2023/07/03 05:21:40;;;;;;;8.63;3.93;;;;;;;14.70;100.00;99611.22;4972740;28;20428;-74
2023/07/03 05:24:06;;;;;;;13.07;4.80;;;;;;;14.75;100.00;99552.28;4974082;28;20556;-74
2023/07/03 05:26:31;;;;;;;21.13;4.50;;;;;;;15.25;100.00;99531.78;4973283;28;20041;-74
2023/07/03 05:28:57;;;;;;;11.20;4.00;;;;;;;14.85;100.00;99460.41;4959337;28;20043;-74
2023/07/03 05:31:23;;;;;;;17.03;4.77;;;;;;;14.53;100.00;99510.66;4975632;28;20636;-73
2023/07/03 05:33:48;;;;;;;;;;;;;;;14.04;100.00;99580.13;4973361;28;20054;-73
2023/07/03 05:36:14;;;;;;;;;;;;;;;13.61;100.00;99781.03;4976556;28;20441;-72
2023/07/03 05:38:39;;;;;;;17.90;6.10;;;;;;;13.37;100.00;99903.91;4972116;28;19925;-73
2023/07/03 05:41:04;;;;;;;17.13;6.30;;;;;;;13.26;100.00;99968.78;4973092;28;20026;-74
2023/07/03 05:43:30;;;;;;;27.00;6.77;;;;;;;13.15;100.00;100010.38;4974168;28;20125;-74
2023/07/03 05:45:55;;;;;;;18.27;6.23;;;;;;;13.15;100.00;100033.69;4974912;28;20042;-73
2023/07/03 05:48:21;;;;;;;22.37;6.17;;;;;;;13.37;100.00;100070.16;4974166;28;20069;-74
2023/07/03 05:50:46;;;;;;;26.50;7.50;;;;;;;13.23;100.00;100063.84;4972814;28;20034;-74
2023/07/03 05:53:12;;;;;;;21.83;6.80;;;;;;;13.00;100.00;100058.72;4951087;28;20031;-75
2023/07/03 05:55:37;;;;;;;22.98;7.38;;;;;;;13.06;100.00;100090.13;4976726;28;20027;-74
2023/07/03 05:58:03;;;;;;;24.53;7.23;;;;;;;13.02;100.00;100099.56;4958918;28;20500;-75
2023/07/03 06:00:30;;;;;;;18.85;6.28;;;;;;;12.87;100.00;100072.00;4951755;28;20031;-74
2023/07/03 06:02:56;;;;;;;22.50;7.30;;;;;;;12.77;100.00;100079.56;4974195;28;20121;-76
2023/07/03 06:05:22;;;;;;;14.57;5.70;;;;;;;12.85;100.00;100103.53;4957940;28;20136;-75
2023/07/03 06:07:47;;;;;;;17.03;5.77;;;;;;;12.82;100.00;100103.91;4974257;28;20511;-76
2023/07/03 06:10:13;;;;;;;13.73;5.63;;;;;;;12.75;100.00;100097.69;4950458;28;20504;-76
2023/07/03 06:12:40;;;;;;;20.77;6.72;;;;;;;12.83;100.00;100098.38;4945989;28;20027;-76
2023/07/03 06:15:06;;;;;;;24.13;8.30;;;;;;;13.00;100.00;100115.00;4977380;28;20042;-76
2023/07/03 06:17:32;;;;;;;19.17;6.28;;;;;;;12.91;100.00;100108.13;4975964;28;20502;-77
2023/07/03 06:19:58;;;;;;;17.08;6.65;;;;;;;12.93;100.00;100099.91;4974056;28;20058;-75
2023/07/03 06:22:26;;;;;;;13.02;6.68;;;;;;;12.93;100.00;100091.88;4955924;28;20041;-75
2023/07/03 06:24:51;;;;;;;17.63;6.43;;;;;;;12.88;100.00;100084.41;4957934;28;20484;-74
2023/07/03 06:27:16;;;;;;;23.70;6.00;;;;;;;12.84;100.00;100067.88;4978944;28;20030;-74
2023/07/03 06:29:42;;;;;;;12.70;5.30;;;;;;;12.96;100.00;100057.44;4958273;28;20061;-75
2023/07/03 06:32:09;;;;;;;19.10;6.07;;;;;;;13.04;100.00;100048.44;4963628;28;20031;-76
2023/07/03 06:34:35;;;;;;;17.98;5.70;;;;;;;13.18;100.00;100044.84;4973622;28;20084;-77
2023/07/03 06:37:02;;;;;;;15.33;5.77;;;;;;;13.29;100.00;100057.69;4972967;28;20484;-76
2023/07/03 06:39:28;;;;;;;13.10;5.47;;;;;;;13.51;100.00;100057.66;4974921;28;20042;-76
2023/07/03 06:41:53;;;;;;;24.63;5.57;;;;;;;13.42;100.00;100040.06;4972454;28;20423;-75
2023/07/03 06:44:20;;;;;;;10.67;4.00;;;;;;;13.34;100.00;100005.34;4958428;28;20145;-76
2023/07/03 06:46:46;;;;;;;14.88;4.22;;;;;;;13.64;100.00;100012.09;4974041;28;20030;-75
2023/07/03 06:49:12;;;;;;;8.20;3.60;;;;;;;13.97;100.00;99992.59;4974712;28;20038;-75
2023/07/03 06:51:38;;;;;;;7.65;3.00;;;;;;;14.09;100.00;99949.88;4975807;28;20427;-75
2023/07/03 06:54:04;;;;;;;9.40;3.23;;;;;;;14.20;100.00;99910.88;4973836;28;20030;-76
2023/07/03 06:56:29;;;;;;;8.63;2.70;;;;;;;14.71;100.00;99897.63;4972684;28;20090;-77
2023/07/03 06:58:55;;;;;;;8.33;3.50;;;;;;;15.73;100.00;99845.88;4942265;28;20035;-79
2023/07/03 07:01:23;;;;;;;9.00;2.63;;;;;;;16.30;100.00;99765.84;4973851;28;20273;-77
2023/07/03 07:03:48;;;;;;;14.18;4.15;;;;;;;16.75;100.00;99660.41;4975395;28;20121;-77
2023/07/03 07:06:26;;;;;;;13.00;3.28;;;;;;;17.07;100.00;99552.31;4974141;28;20011;-77
2023/07/03 07:08:52;;;;;;;8.40;2.53;;;;;;;17.43;100.00;99528.84;4959359;28;20392;-76
2023/07/03 07:11:22;;;;;;;;;;;;;;;17.70;100.00;99458.97;4977589;28;20052;-76
2023/07/03 07:13:50;;;;;;;13.77;3.28;;;;;;;16.99;100.00;99324.31;4971627;28;19914;-78
2023/07/03 07:16:21;;;;;;;10.65;3.30;;;;;;;17.71;100.00;99457.91;4973019;28;20057;-77
2023/07/03 07:18:50;;;;;;;6.90;2.72;;;;;;;17.87;100.00;99365.38;4968741;28;20543;-77
2023/07/03 07:21:15;;;;;;;12.57;3.40;;;;;;;17.87;100.00;99275.47;4974663;28;20109;-77
2023/07/03 07:23:41;;;;;;;10.63;3.23;;;;;;;17.73;100.00;99243.38;4968575;28;20137;-78
2023/07/03 07:26:06;;;;;;;10.43;3.23;;;;;;;17.69;100.00;99242.22;4959245;28;20034;-77
2023/07/03 07:28:32;;;;;;;9.50;3.33;;;;;;;17.46;100.00;99264.75;4971900;28;20492;-77
2023/07/03 07:30:57;;;;;;;11.43;2.97;;;;;;;18.32;100.00;99421.19;4957786;28;20039;-77
2023/07/03 07:33:23;;;;;;;16.37;4.23;;;;;;;18.84;100.00;99259.78;4972622;28;20490;-76
2023/07/03 07:35:50;;;;;;;18.20;3.65;;;;;;;17.46;100.00;99102.09;4970141;28;20298;-77
2023/07/03 07:38:16;;;;;;;9.77;3.33;;;;;;;16.33;100.00;99237.50;4977857;28;20081;-76
2023/07/03 07:40:43;;;;;;;10.50;3.13;;;;;;;15.76;100.00;99484.88;4966017;28;20039;-76
2023/07/03 07:43:08;;;;;;;15.32;3.33;;;;;;;15.83;100.00;99699.03;4972543;28;20027;-77
2023/07/03 07:45:34;;;;;;;6.47;2.10;;;;;;;15.30;100.00;99671.75;4970802;28;20061;-75
2023/07/03 07:47:59;;;;;;;9.77;3.03;;;;;;;14.65;100.00;99734.56;4960267;28;20039;-76
2023/07/03 07:50:27;;;;;;;5.63;2.60;;;;;;;14.25;100.00;99788.38;4972807;28;20030;-76
2023/07/03 07:52:53;;;;;;;8.75;2.55;;;;;;;14.56;100.00;99918.50;4973360;28;20159;-75
2023/07/03 07:55:18;;;;;;;6.35;2.15;;;;;;;14.81;100.00;99874.84;4974130;28;20138;-76
2023/07/03 07:57:44;;;;;;;4.93;1.80;;;;;;;14.89;100.00;99788.63;4971489;28;20039;-76
2023/07/03 08:00:10;;;;;;;5.83;2.13;;;;;;;15.46;100.00;99808.38;4972041;28;20037;-76
2023/07/03 08:02:40;;;;;;;8.75;2.65;;;;;;;16.12;100.00;99667.03;4970621;28;20022;-77
2023/07/03 08:05:06;;;;;;;6.45;2.50;;;;;;;17.10;100.00;99565.31;4972697;28;20376;-77
2023/07/03 08:07:31;;;;;;;9.65;1.80;;;;;;;17.43;100.00;99474.88;4973045;28;20030;-76
2023/07/03 08:09:56;;;;;;;8.77;1.77;;;;;;;17.17;100.00;99381.84;4961148;28;20125;-75
2023/07/03 08:12:22;;;;;;;6.60;2.03;;;;;;;16.82;100.00;99278.41;4973941;28;20030;-75
2023/07/03 08:14:47;;;;;;;9.07;1.70;;;;;;;17.14;100.00;99337.28;4941035;28;20492;-76
2023/07/03 08:17:12;;;;;;;7.10;1.70;;;;;;;17.64;100.00;99338.47;4973586;28;20435;-76
2023/07/03 08:19:38;;;;;;;8.80;2.40;;;;;;;17.41;100.00;99162.16;4969899;28;20133;-76
2023/07/03 08:22:03;;;;;;;4.40;1.40;;;;;;;18.52;100.00;99323.44;4972043;28;20511;-77
2023/07/03 08:24:28;;;;;;;4.40;1.50;;;;;;;18.25;100.00;98971.34;4971135;28;20583;-75
2023/07/03 08:26:54;;;;;;;5.20;2.20;;;;;;;18.69;100.00;99200.91;4956981;28;20039;-76
2023/07/03 08:29:20;;;;;;;13.50;1.87;;;;;;;18.86;100.00;99100.81;4959434;28;20031;-74
2023/07/03 08:31:45;;;;;;;8.50;1.70;;;;;;;19.27;100.00;99187.72;4960118;28;20446;-75
2023/07/03 08:34:11;;;;;;;11.23;2.25;;;;;;;18.85;100.00;98936.97;4960279;28;20647;-74
2023/07/03 08:36:36;;;;;;;8.40;2.13;;;;;;;19.00;100.00;98985.72;4976713;28;20023;-74
2023/07/03 08:39:03;;;;;;;9.43;1.50;;;;;;;19.68;100.00;99071.63;4960675;28;20041;-74
2023/07/03 08:41:31;;;;;;;8.40;1.92;;;;;;;19.77;100.00;98927.38;4978408;28;20269;-74
2023/07/03 08:43:58;;;;;;;9.60;1.67;;;;;;;19.79;98.96;98714.03;4974303;28;20038;-74
2023/07/03 08:46:27;;;;;;;8.80;1.70;;;;;;;19.27;99.35;98707.00;4976634;28;20064;-74
2023/07/03 08:48:57;;;;;;;7.50;1.88;;;;;;;18.49;100.00;99061.78;4974388;28;20070;-74
2023/07/03 08:51:27;;;;;;;11.80;2.00;;;;;;;18.06;100.00;99271.44;4961893;28;20035;-74
2023/07/03 08:53:56;;;;;;;5.50;1.65;;;;;;;17.67;100.00;99195.75;4976002;28;20045;-74
2023/07/03 08:56:26;;;;;;;6.82;1.55;;;;;;;17.21;100.00;99087.16;4961786;28;20030;-74
2023/07/03 08:58:55;;;;;;;10.80;2.30;;;;;;;17.32;100.00;99182.53;4975078;28;20039;-74
2023/07/03 09:01:44;;;;;;;5.22;1.80;;;;;;;18.89;100.00;99228.19;4950708;28;20019;-74
2023/07/03 09:04:27;;;;;;;6.00;1.73;;;;;;;19.73;100.00;99026.47;4961532;28;20575;-76
2023/07/03 09:07:05;;;;;;;8.30;1.50;;;;;;;19.45;100.00;99029.56;4957600;28;20393;-74
2023/07/03 09:09:36;;;;;;;5.32;2.28;;;;;;;18.53;100.00;99089.94;4974810;28;20129;-74
2023/07/03 09:12:21;;;;;;;10.48;1.83;;;;;;;18.06;100.00;99267.91;4960887;28;20039;-74
2023/07/03 09:14:53;;;;;;;6.20;1.90;;;;;;;17.28;100.00;99311.69;4956813;28;20102;-73
2023/07/03 09:17:19;;;;;;;12.55;2.47;;;;;;;17.27;100.00;99544.69;4963419;28;20035;-74
2023/07/03 09:19:48;;;;;;;4.25;1.23;;;;;;;17.24;100.00;99502.00;4980417;28;20037;-73
2023/07/03 09:22:40;;;;;;;5.32;1.63;;;;;;;16.77;100.00;99344.84;4969241;28;20371;-74
2023/07/03 09:25:14;;;;;;;5.40;1.75;;;;;;;16.59;100.00;99338.53;4974688;28;20026;-76
2023/07/03 09:27:41;;;;;;;11.60;2.22;;;;;;;18.47;100.00;99604.41;4972582;28;20046;-75
2023/07/03 09:30:11;;;;;;;8.88;1.90;;;;;;;19.29;100.00;99283.81;4975045;28;20467;-76
2023/07/03 09:32:36;;;;;;;4.90;1.60;;;;;;;20.54;100.00;99341.44;4976797;28;20038;-73
2023/07/03 09:35:15;;;;;;;8.73;2.23;;;;;;;20.46;97.66;98990.34;4977258;28;20510;-74
2023/07/03 09:37:56;;;;;;;6.15;1.42;;;;;;;21.25;94.14;98974.56;4973421;28;20125;-74
2023/07/03 09:40:25;;;;;;;5.40;1.40;;;;;;;21.55;88.98;98834.41;4976347;28;20041;-74
2023/07/03 09:42:52;;;;;;;9.13;1.60;;;;;;;20.62;89.47;98807.66;4958940;28;20027;-74
2023/07/03 09:45:21;;;;;;;8.70;1.98;;;;;;;21.27;83.07;98516.47;4974539;28;20033;-73
2023/07/03 09:48:17;;;;;;;6.72;1.58;;;;;;;20.68;83.85;98525.69;4972807;28;20027;-73
2023/07/03 09:50:43;;;;;;;8.75;2.42;;;;;;;20.33;85.06;98671.13;4955679;28;20039;-73
2023/07/03 09:53:14;;;;;;;;;;;;;;;20.77;83.38;98676.66;4970752;28;20349;-73
2023/07/03 09:55:39;;;;;;;5.93;1.13;;;;;;;21.45;78.22;98458.78;4972899;28;20319;-73
2023/07/03 09:58:16;;;;;;;6.80;1.90;;;;;;;19.95;75.94;97977.50;4973515;28;20539;-73
2023/07/03 10:00:50;;;;;;;7.22;2.08;;;;;;;18.61;78.75;98017.72;4971533;28;20071;-75
2023/07/03 10:03:28;;;;;;;6.43;1.63;;;;;;;17.97;90.38;98875.22;4974866;28;20520;-75
2023/07/03 10:06:03;;;;;;;3.65;1.27;;;;;;;16.99;95.49;98902.94;4970569;28;20042;-75
2023/07/03 10:08:29;;;;;;;4.03;1.23;;;;;;;16.64;100.00;99088.06;4973518;28;20042;-73
2023/07/03 10:10:59;;;;;;;2.95;1.25;;;;;;;16.57;100.00;99412.56;4972752;28;20336;-72
2023/07/03 10:13:29;;;;;;;4.53;1.10;;;;;;;17.07;100.00;99531.56;4974093;28;20104;-73
2023/07/03 10:15:55;;;;;;;2.50;1.00;;;;;;;17.99;100.00;99429.28;4971258;28;20745;-73
2023/07/03 10:18:35;;;;;;;4.10;1.38;;;;;;;18.85;100.00;99426.34;4973231;28;20034;-73
2023/07/03 10:21:02;;;;;;;4.85;1.25;;;;;;;18.75;93.69;98941.22;4971720;28;20042;-74
2023/07/03 10:23:31;;;;;;;4.88;0.95;;;;;;;19.51;93.60;99190.91;4971422;28;20031;-75
2023/07/03 10:26:09;;;;;;;8.25;1.45;;;;;;;19.51;90.11;98944.63;4972487;28;20038;-75
2023/07/03 10:28:39;;;;;;;10.05;2.08;;;;;;;19.65;88.72;98945.75;4973249;28;20077;-73
2023/07/03 10:31:13;;;;;;;6.60;1.55;;;;;;;20.61;87.81;99125.13;4973499;28;20128;-73
2023/07/03 10:33:44;;;;;;;8.13;1.83;;;;;;;20.61;83.62;98789.78;4973039;28;20476;-72
2023/07/03 10:36:14;;;;;;;5.38;1.23;;;;;;;21.40;83.65;99045.13;4974739;28;20049;-73
2023/07/03 10:38:43;;;;;;;7.18;1.55;;;;;;;21.11;80.93;98780.88;4972576;28;20539;-75
2023/07/03 10:41:21;;;;;;;8.93;2.47;;;;;;;20.42;79.52;98526.63;4971122;28;20078;-73
2023/07/03 10:43:53;;;;;;;7.22;1.58;;;;;;;20.44;77.97;98491.13;4969450;28;20035;-72
2023/07/03 10:46:42;;;;;;;8.23;1.98;;;;;;;21.11;77.50;98631.66;4974314;28;20125;-72
2023/07/03 10:49:17;;;;;;;7.13;1.75;;;;;;;22.02;75.22;98713.44;4972289;28;20049;-73
2023/07/03 10:51:54;;;;;;;8.55;1.65;;;;;;;22.74;73.95;98809.44;4968579;28;20030;-73
2023/07/03 10:54:34;;;;;;;8.25;1.75;;;;;;;23.58;71.23;98746.28;4958034;28;20070;-73
2023/07/03 10:57:02;;;;;;;7.30;1.27;;;;;;;22.06;72.85;98554.19;4972323;28;20034;-73
2023/07/03 10:59:33;;;;;;;5.20;1.42;;;;;;;20.86;74.08;98419.22;4975933;28;20671;-73
2023/07/03 11:02:26;;;;;;;5.65;1.33;;;;;;;19.80;76.54;98436.00;4942879;28;20089;-73
2023/07/03 11:05:04;;;;;;;7.68;1.20;;;;;;;18.97;77.71;98396.81;4958883;28;20469;-73
2023/07/03 11:07:51;;;;;;;4.82;1.10;;;;;;;18.73;77.98;98456.00;4973805;28;20035;-72
2023/07/03 11:10:38;;;;;;;10.57;2.50;;;;;;;18.38;79.08;98440.59;4974494;28;20030;-74
2023/07/03 11:13:16;;;;;;;8.60;1.98;;;;;;;18.32;79.18;98447.91;4972636;28;20042;-74
2023/07/03 11:15:57;;;;;;;5.75;1.60;;;;;;;18.30;81.11;98612.13;4968224;28;20043;-73
2023/07/03 11:19:11;;;;;;;4.68;1.40;;;;;;;18.18;83.45;98798.69;4987743;28;20050;-74
2023/07/03 11:21:47;;;;;;;5.50;1.40;;;;;;;18.18;85.81;98932.91;4973739;28;20425;-74
2023/07/03 11:24:25;;;;;;;;;;;;;;;18.19;87.63;99024.50;4956278;28;20028;-74
2023/07/03 11:27:09;;;;;;;6.75;1.40;;;;;;;18.26;88.38;99081.84;4982081;28;19921;-74
2023/07/03 11:29:36;;;;;;;5.00;1.42;;;;;;;17.88;88.32;98939.63;4964422;28;20046;-74